Greenville, Texas
Current Conditions -  °F | °C
As of 11:15 AM on Friday 19 Dec 2014 (Local Time) from KGVT Reporting Station
Haze Haze  
Wind Chill: 41°   Ceiling: 300
Heat Index: 45°   Visibility: 2.5mi
Dew Point: 45°   Wind: 7mph
Humidity: 100%   Direction: 20°NNE
Pressure: 30.2"   Gusts: NA
Location:  33.14°N, 96.11°W
Report Text: KGVT 191715Z AUTO 02006KT 2 1/2SM BR OVC003 07/07 A3020 RMK AO2
Loading
Personal Weather Stations






























Interactive Weather Map New forecast layout! Learn more

10-Day Weather Forecast

Advertisements
Track Severe Weather on mobile